Ouarzazate, Ouarzazate Airport (GMMZ)

NameOuarzazate Airport
CityOuarzazate
CountryMorocco
ICAOGMMZ
IATAOZZ
Altitude1153 m
CoordinatesGoogle Map
Live Air TrafficLiveATC.net
METARGMMZ 251700Z 34011KT 9999 FEW040 22/M03 Q1011 NOSIG
2020-04-25 17:00:00 Wind: North-Northwest (340°) 5.66 m/s - Visibility: > 10000 m - Temperature: 22 °C - Dew point: -3 °C - Humidity: 18.6% - Pressure: 1011 hPa

Sorry, no flights used the airport in this database.